KNZY/NZY METAR and TAF weather

Enter ICAO airport designator
Station Type Date Time Source
KNZY METAR 2020/01/29 12:52 UTC NOAA

KNZY 291252Z 08003KT 8SM SCT012 SCT250 11/10 A3001 RMK AO2 SLP162 T01110100 $


Station Type Date Time Source
KNZY Decoded METAR 2020/01/29 12:52 UTC NOAA

NAS NORTH ISLAND, SAN DIEGO, CA, United States (KNZY) 32-42N 117-13W 14M
Jan 29, 2020 - 07:52 AM EST / 2020.01.29 1252 UTC
Wind: from the E (080 degrees) at 3 MPH (3 KT):0
Visibility: 8 mile(s):0
Sky conditions: partly cloudy
Temperature: 52.0 F (11.1 C)
Dew Point: 50.0 F (10.0 C)
Relative Humidity: 92%
Pressure (altimeter): 30.01 in. Hg (1016 hPa)
ob: KNZY 291252Z 08003KT 8SM SCT012 SCT250 11/10 A3001 RMK AO2 SLP162 T01110100
cycle: 13

Station Type Date Time Source
KNZY TAF 2020/01/29 07:06 UTC NOAA

TAF KNZY 2907/3007 VRB06KT 9999 SCT008 SCT250 QNH2994INS
TEMPO 2909/2915 8000 BR BKN008
BECMG 2921/2922 33008KT 9999 FEW250 QNH2991INS
FM300600 VRB06KT 9999 FEW250 QNH3001INS T09/2913Z T19/2921Z FS30134

Example: see airport list